createdAt,value
2023-03-06T00:00:51.323Z,8.39
2023-03-06T00:03:19.088Z,8.41
2023-03-06T00:05:48.266Z,8.40
2023-03-06T00:08:16.617Z,8.35
2023-03-06T00:10:44.521Z,8.39
2023-03-06T00:13:14.685Z,8.37
2023-03-06T00:15:43.418Z,8.33
2023-03-06T00:18:11.100Z,8.31
2023-03-06T00:20:41.017Z,8.35
2023-03-06T00:23:11.066Z,8.36
2023-03-06T00:25:39.115Z,8.35
2023-03-06T00:28:06.975Z,8.34
2023-03-06T00:30:34.914Z,8.37
2023-03-06T00:33:02.580Z,8.38
2023-03-06T00:35:30.297Z,8.39
2023-03-06T00:37:59.987Z,8.39
2023-03-06T00:40:28.850Z,8.46
2023-03-06T00:42:56.566Z,8.47
2023-03-06T00:45:24.663Z,8.47
2023-03-06T00:47:52.355Z,8.43
2023-03-06T00:50:20.091Z,8.44
2023-03-06T00:52:47.987Z,8.45
2023-03-06T00:55:15.707Z,8.45
2023-03-06T00:57:44.743Z,8.44
2023-03-06T01:00:14.199Z,8.44
2023-03-06T01:02:42.342Z,8.43
2023-03-06T01:05:10.864Z,8.39
2023-03-06T01:07:38.878Z,8.40
2023-03-06T01:10:07.869Z,8.38
2023-03-06T01:12:35.535Z,8.38
2023-03-06T01:15:05.563Z,8.37
2023-03-06T01:17:33.301Z,8.35
2023-03-06T01:20:00.975Z,8.32
2023-03-06T01:22:28.945Z,8.35
2023-03-06T01:24:56.613Z,8.34
2023-03-06T01:27:24.385Z,8.35
2023-03-06T01:29:52.211Z,8.35
2023-03-06T01:32:21.617Z,8.37
2023-03-06T01:34:49.652Z,8.35
2023-03-06T01:37:17.664Z,8.35
2023-03-06T01:39:45.554Z,8.36
2023-03-06T01:42:13.312Z,8.35
2023-03-06T01:45:00.040Z,8.36
2023-03-06T01:47:29.397Z,8.32
2023-03-06T01:49:58.758Z,8.32
2023-03-06T01:52:30.580Z,8.31
2023-03-06T01:55:03.460Z,8.30
2023-03-06T01:57:35.719Z,8.29
2023-03-06T02:00:08.181Z,8.25
2023-03-06T02:02:38.428Z,8.24
2023-03-06T02:05:07.258Z,8.20
2023-03-06T02:07:35.865Z,8.13
2023-03-06T02:10:04.246Z,8.17
2023-03-06T02:12:32.313Z,8.17
2023-03-06T02:15:00.254Z,8.12
2023-03-06T02:17:29.024Z,8.16
2023-03-06T02:20:04.712Z,8.18
2023-03-06T02:22:38.823Z,8.11
2023-03-06T02:25:15.034Z,8.20
2023-03-06T02:27:44.539Z,8.20
2023-03-06T02:30:17.522Z,8.19
2023-03-06T02:32:45.546Z,8.17
2023-03-06T02:35:19.775Z,8.16
2023-03-06T02:37:48.301Z,8.12
2023-03-06T02:40:18.252Z,8.11
2023-03-06T02:42:51.998Z,8.06
2023-03-06T02:45:27.064Z,8.05
2023-03-06T02:47:55.174Z,8.04
2023-03-06T02:50:22.846Z,8.02
2023-03-06T02:52:50.526Z,8.01
2023-03-06T02:55:18.600Z,8.00
2023-03-06T02:57:46.477Z,8.00
2023-03-06T03:00:17.190Z,8.01
2023-03-06T03:02:45.664Z,8.00
2023-03-06T03:05:13.963Z,8.00
2023-03-06T03:07:41.648Z,7.98
2023-03-06T03:10:11.036Z,8.00
2023-03-06T03:12:38.789Z,8.01
2023-03-06T03:15:07.587Z,7.96
2023-03-06T03:17:38.744Z,8.01
2023-03-06T03:20:09.399Z,8.01
2023-03-06T03:22:37.078Z,8.02
2023-03-06T03:25:05.584Z,8.02
2023-03-06T03:27:33.277Z,8.01
2023-03-06T03:30:01.493Z,8.00
2023-03-06T03:32:29.626Z,8.01
2023-03-06T03:34:58.662Z,8.01
2023-03-06T03:37:26.341Z,8.00
2023-03-06T03:39:54.362Z,8.00
2023-03-06T03:42:21.995Z,8.00
2023-03-06T03:44:49.693Z,7.97
2023-03-06T03:47:17.822Z,7.99
2023-03-06T03:49:45.697Z,7.96
2023-03-06T03:52:14.734Z,7.99
2023-03-06T03:54:43.034Z,7.95
2023-03-06T03:57:10.684Z,7.96
2023-03-06T03:59:38.346Z,7.93
2023-03-06T04:02:06.536Z,7.79
2023-03-06T04:04:34.230Z,7.91
2023-03-06T04:07:01.928Z,7.89
2023-03-06T04:09:31.332Z,7.87
2023-03-06T04:11:58.989Z,7.82
2023-03-06T04:14:26.812Z,7.82
2023-03-06T04:16:54.900Z,7.80
2023-03-06T04:19:22.581Z,7.79
2023-03-06T04:21:50.372Z,7.78
2023-03-06T04:24:18.332Z,7.75
2023-03-06T04:26:47.359Z,7.74
2023-03-06T04:29:15.049Z,7.70
2023-03-06T04:31:43.205Z,7.70
2023-03-06T04:34:10.862Z,7.66
2023-03-06T04:36:38.573Z,7.67
2023-03-06T04:39:06.568Z,7.66
2023-03-06T04:41:34.319Z,7.66
2023-03-06T04:44:03.728Z,7.61
2023-03-06T04:46:31.668Z,7.68
2023-03-06T04:48:59.416Z,7.67
2023-03-06T04:51:27.653Z,7.70
2023-03-06T04:53:55.316Z,7.71
2023-03-06T04:56:23.262Z,7.70
2023-03-06T04:58:51.296Z,7.65
2023-03-06T05:01:20.543Z,7.70
2023-03-06T05:03:49.993Z,7.68
2023-03-06T05:06:17.655Z,7.67
2023-03-06T05:08:45.353Z,7.68
2023-03-06T05:11:13.365Z,7.65
2023-03-06T05:13:41.025Z,7.68
2023-03-06T05:16:09.893Z,7.66
2023-03-06T05:18:39.521Z,7.66
2023-03-06T05:21:07.988Z,7.63
2023-03-06T05:23:38.400Z,7.62
2023-03-06T05:26:08.670Z,7.58
2023-03-06T05:28:36.892Z,7.55
2023-03-06T05:31:04.759Z,7.53
2023-03-06T05:33:33.443Z,7.48
2023-03-06T05:36:02.492Z,7.48
2023-03-06T05:38:30.369Z,7.44
2023-03-06T05:40:58.282Z,7.47
2023-03-06T05:43:25.955Z,7.43
2023-03-06T05:46:01.742Z,7.53
2023-03-06T05:48:29.435Z,7.64
2023-03-06T05:50:57.996Z,7.78
2023-03-06T05:53:28.030Z,7.93
2023-03-06T05:55:59.773Z,7.97
2023-03-06T05:58:27.522Z,8.12
2023-03-06T06:00:55.546Z,8.14
2023-03-06T06:03:23.855Z,8.16
2023-03-06T06:05:52.111Z,8.17
2023-03-06T06:08:20.274Z,8.14
2023-03-06T06:10:51.010Z,8.12
2023-03-06T06:13:20.777Z,8.09
2023-03-06T06:15:48.467Z,8.04
2023-03-06T06:18:16.194Z,7.97
2023-03-06T06:20:44.096Z,7.93
2023-03-06T06:23:12.357Z,7.90
2023-03-06T06:25:40.288Z,7.85
2023-03-06T06:28:09.501Z,7.83
2023-03-06T06:30:37.223Z,7.78
2023-03-06T06:33:04.893Z,7.79
2023-03-06T06:35:37.097Z,7.78
2023-03-06T06:38:04.887Z,7.75
2023-03-06T06:40:32.560Z,7.74
2023-03-06T06:43:00.516Z,7.72
2023-03-06T06:45:29.551Z,7.72
2023-03-06T06:47:57.410Z,7.71
2023-03-06T06:50:25.251Z,7.72
2023-03-06T06:52:52.940Z,7.65
2023-03-06T06:55:20.612Z,7.70
2023-03-06T06:57:48.592Z,7.71
2023-03-06T07:00:17.903Z,7.69
2023-03-06T07:02:49.461Z,7.67
2023-03-06T07:05:17.296Z,7.69
2023-03-06T07:07:44.997Z,7.67
2023-03-06T07:10:15.550Z,7.69
2023-03-06T07:12:43.471Z,7.71
2023-03-06T07:15:14.524Z,7.72
2023-03-06T07:17:42.395Z,7.69
2023-03-06T07:20:12.878Z,7.70
2023-03-06T07:22:50.436Z,7.69
2023-03-06T07:25:19.094Z,7.61
2023-03-06T07:27:52.790Z,7.71
2023-03-06T07:30:21.772Z,7.74
2023-03-06T07:32:49.464Z,7.74
2023-03-06T07:35:20.499Z,7.76
2023-03-06T07:37:48.727Z,7.75
2023-03-06T07:40:16.410Z,7.73
2023-03-06T07:42:44.176Z,7.75
2023-03-06T07:45:13.115Z,7.75
2023-03-06T07:47:41.218Z,7.76
2023-03-06T07:50:09.756Z,7.78
2023-03-06T07:52:39.169Z,7.79
2023-03-06T07:55:07.940Z,7.79
2023-03-06T07:57:35.612Z,7.79
2023-03-06T08:00:03.885Z,7.78
2023-03-06T08:02:31.564Z,7.78
2023-03-06T08:04:59.267Z,7.77
2023-03-06T08:07:27.507Z,7.79
2023-03-06T08:09:56.543Z,7.84
2023-03-06T08:12:24.251Z,7.87
2023-03-06T08:14:52.521Z,7.90
2023-03-06T08:17:20.249Z,7.93
2023-03-06T08:19:47.902Z,8.00
2023-03-06T08:22:16.106Z,8.02
2023-03-06T08:24:43.748Z,8.09
2023-03-06T08:27:12.768Z,8.18
2023-03-06T08:29:40.621Z,8.26
2023-03-06T08:32:12.617Z,8.37
2023-03-06T08:34:43.038Z,8.42
2023-03-06T08:37:10.713Z,8.52
2023-03-06T08:39:38.379Z,8.61
2023-03-06T08:42:06.613Z,8.68
2023-03-06T08:44:35.639Z,8.78
2023-03-06T08:47:04.466Z,8.87
2023-03-06T08:49:32.169Z,8.90
2023-03-06T08:51:59.821Z,8.93
2023-03-06T08:54:27.456Z,8.95
2023-03-06T08:56:55.830Z,8.96
2023-03-06T08:59:24.777Z,8.96
2023-03-06T09:01:54.213Z,8.98
2023-03-06T09:04:22.888Z,8.96
2023-03-06T09:06:50.809Z,8.97
2023-03-06T09:09:18.650Z,8.96
2023-03-06T09:11:46.498Z,8.96
2023-03-06T09:14:14.458Z,8.94
2023-03-06T09:16:42.199Z,8.96
2023-03-06T09:19:11.991Z,8.97
2023-03-06T09:21:39.740Z,8.97
2023-03-06T09:24:07.898Z,9.00
2023-03-06T09:26:45.525Z,8.98
2023-03-06T09:29:16.263Z,8.99
2023-03-06T09:31:44.837Z,8.98
2023-03-06T09:34:14.117Z,9.03
2023-03-06T09:36:55.263Z,9.01
2023-03-06T09:39:25.884Z,9.04
2023-03-06T09:41:54.469Z,9.06
2023-03-06T09:44:26.491Z,9.08
2023-03-06T09:47:24.030Z,9.11
2023-03-06T09:50:13.244Z,9.15
2023-03-06T09:52:47.659Z,9.17
2023-03-06T09:55:20.467Z,9.21
2023-03-06T09:57:55.825Z,9.24
2023-03-06T10:00:30.404Z,9.28
2023-03-06T10:03:07.033Z,9.33
2023-03-06T10:05:42.011Z,9.32
2023-03-06T10:08:21.466Z,9.37
2023-03-06T10:10:55.713Z,9.38
2023-03-06T10:13:29.866Z,9.41
2023-03-06T10:16:08.231Z,9.44
2023-03-06T10:19:13.160Z,9.45
2023-03-06T10:21:54.069Z,9.47
2023-03-06T10:24:32.237Z,9.50
2023-03-06T10:27:04.699Z,9.53
2023-03-06T10:29:56.371Z,9.57
2023-03-06T10:32:47.508Z,9.62
2023-03-06T10:35:20.616Z,9.69
2023-03-06T10:37:51.194Z,9.71
2023-03-06T10:40:35.910Z,9.79
2023-03-06T10:43:11.427Z,9.86
2023-03-06T10:45:49.957Z,9.97
2023-03-06T10:48:22.591Z,10.06
2023-03-06T10:50:51.114Z,10.11
2023-03-06T10:53:26.635Z,10.19
2023-03-06T10:55:57.045Z,10.27
2023-03-06T10:58:28.441Z,10.33
2023-03-06T11:01:08.343Z,10.40
2023-03-06T11:03:37.224Z,10.45
2023-03-06T11:06:11.565Z,10.54
2023-03-06T11:08:44.015Z,10.56
2023-03-06T11:11:15.908Z,10.56
2023-03-06T11:13:59.168Z,10.58
2023-03-06T11:16:30.631Z,10.59
2023-03-06T11:19:00.787Z,10.58
2023-03-06T11:21:31.764Z,10.61
2023-03-06T11:24:08.017Z,10.65
2023-03-06T11:26:44.928Z,10.71
2023-03-06T11:29:38.718Z,10.75
2023-03-06T11:32:13.747Z,10.83
2023-03-06T11:34:50.597Z,10.91
2023-03-06T11:37:30.546Z,10.92
2023-03-06T11:40:08.387Z,10.95
2023-03-06T11:42:40.803Z,10.99
2023-03-06T11:45:21.207Z,11.02
2023-03-06T11:47:54.356Z,10.98
2023-03-06T11:50:31.322Z,11.07
2023-03-06T11:53:01.793Z,11.04
2023-03-06T11:55:46.109Z,11.06
2023-03-06T11:58:40.892Z,11.11
2023-03-06T12:01:14.701Z,11.20
2023-03-06T12:04:21.377Z,11.31
2023-03-06T12:06:57.900Z,11.36
2023-03-06T12:09:33.359Z,11.35
2023-03-06T12:15:08.612Z,11.35
2023-03-06T12:17:55.125Z,11.31
2023-03-06T12:20:49.765Z,11.24
2023-03-06T12:23:32.867Z,11.20
2023-03-06T12:26:07.760Z,11.15
2023-03-06T12:28:53.986Z,11.09
2023-03-06T12:31:47.566Z,11.05
2023-03-06T12:34:27.198Z,11.01
2023-03-06T12:37:05.590Z,11.02
2023-03-06T12:39:47.062Z,10.99
2023-03-06T12:42:36.274Z,10.94
2023-03-06T12:45:28.990Z,10.89
2023-03-06T12:47:58.304Z,10.84
2023-03-06T12:50:29.331Z,10.86
2023-03-06T12:53:00.167Z,10.88
2023-03-06T12:55:28.533Z,10.87
2023-03-06T12:57:56.958Z,10.89
2023-03-06T13:01:06.065Z,10.94
2023-03-06T13:03:52.970Z,10.97
2023-03-06T13:06:36.614Z,10.99
2023-03-06T13:09:19.671Z,11.00
2023-03-06T13:12:16.567Z,10.92
2023-03-06T13:14:59.306Z,10.91
2023-03-06T13:17:37.962Z,10.89
2023-03-06T13:20:37.932Z,10.85
2023-03-06T13:23:42.860Z,10.85
2023-03-06T13:26:33.448Z,10.84
2023-03-06T13:29:02.088Z,10.82
2023-03-06T13:31:51.722Z,10.81
2023-03-06T13:37:54.685Z,10.85
2023-03-06T13:40:35.682Z,10.92
2023-03-06T13:43:27.543Z,10.90
2023-03-06T13:45:55.592Z,10.95
2023-03-06T13:48:44.194Z,11.01
2023-03-06T13:51:23.333Z,11.10
2023-03-06T13:54:28.524Z,11.17
2023-03-06T13:57:43.898Z,11.28
2023-03-06T14:00:48.999Z,11.31
2023-03-06T14:03:58.527Z,11.38
2023-03-06T14:06:43.101Z,11.41
2023-03-06T14:09:23.671Z,11.40
2023-03-06T14:11:55.706Z,11.33
2023-03-06T14:14:33.618Z,11.31
2023-03-06T14:17:05.827Z,11.32
2023-03-06T14:19:38.650Z,11.31
2023-03-06T14:22:14.784Z,11.21
2023-03-06T14:24:52.964Z,11.29
2023-03-06T14:27:21.772Z,11.32
2023-03-06T14:29:49.914Z,11.35
2023-03-06T14:32:23.745Z,11.30
2023-03-06T14:34:51.635Z,11.29
2023-03-06T14:37:22.750Z,11.29
2023-03-06T14:39:50.836Z,11.30
2023-03-06T14:42:20.956Z,11.25
2023-03-06T14:44:50.097Z,11.20
2023-03-06T14:47:29.643Z,11.19
2023-03-06T14:50:21.529Z,11.20
2023-03-06T14:52:49.942Z,11.23
2023-03-06T14:55:20.828Z,11.28
2023-03-06T14:57:52.244Z,11.28
2023-03-06T15:00:24.249Z,11.31
2023-03-06T15:02:57.590Z,11.34
2023-03-06T15:05:28.993Z,11.35
2023-03-06T15:08:02.868Z,11.34
2023-03-06T15:10:33.195Z,11.28
2023-03-06T15:13:10.523Z,11.30
2023-03-06T15:15:38.437Z,11.25
2023-03-06T15:18:29.475Z,11.19
2023-03-06T15:21:08.739Z,11.13
2023-03-06T15:23:39.240Z,11.10
2023-03-06T15:26:23.905Z,11.09
2023-03-06T15:29:08.967Z,11.09
2023-03-06T15:31:38.994Z,11.08
2023-03-06T15:34:23.879Z,11.08
2023-03-06T15:36:56.787Z,11.08
2023-03-06T15:39:37.230Z,11.06
2023-03-06T15:42:19.253Z,11.07
2023-03-06T15:44:53.233Z,11.00
2023-03-06T15:47:22.044Z,10.93
2023-03-06T15:52:42.496Z,10.85
2023-03-06T15:55:13.643Z,10.85
2023-03-06T15:57:49.385Z,10.81
2023-03-06T16:00:27.961Z,10.82
2023-03-06T16:02:56.807Z,10.79
2023-03-06T16:05:27.596Z,10.76
2023-03-06T16:07:55.881Z,10.66
2023-03-06T16:10:27.599Z,10.68
2023-03-06T16:12:57.438Z,10.63
2023-03-06T16:15:29.633Z,10.61
2023-03-06T16:17:57.937Z,10.58
2023-03-06T16:20:29.845Z,10.63
2023-03-06T16:22:58.027Z,10.61
2023-03-06T16:25:28.724Z,10.57
2023-03-06T16:27:59.767Z,10.59
2023-03-06T16:30:30.109Z,10.57
2023-03-06T16:32:58.726Z,10.56
2023-03-06T16:35:28.812Z,10.56
2023-03-06T16:37:57.040Z,10.54
2023-03-06T16:40:27.123Z,10.52
2023-03-06T16:42:56.041Z,10.54
2023-03-06T16:45:25.620Z,10.46
2023-03-06T16:47:54.397Z,10.52
2023-03-06T16:50:25.704Z,10.50
2023-03-06T16:53:09.908Z,10.50
2023-03-06T16:55:38.267Z,10.53
2023-03-06T16:58:06.301Z,10.49
2023-03-06T17:00:34.267Z,10.46
2023-03-06T17:03:03.360Z,10.49
2023-03-06T17:05:34.290Z,10.51
2023-03-06T17:08:02.495Z,10.50
2023-03-06T17:10:33.416Z,10.50
2023-03-06T17:13:01.568Z,10.52
2023-03-06T17:15:29.589Z,10.47
2023-03-06T17:17:58.458Z,10.47
2023-03-06T17:20:26.438Z,10.46
2023-03-06T17:22:54.569Z,10.47
2023-03-06T17:25:23.057Z,10.45
2023-03-06T17:27:52.475Z,10.45
2023-03-06T17:30:20.675Z,10.45
2023-03-06T17:32:49.305Z,10.45
2023-03-06T17:35:17.498Z,10.43
2023-03-06T17:37:45.581Z,10.42
2023-03-06T17:40:16.270Z,10.41
2023-03-06T17:42:44.355Z,10.36
2023-03-06T17:45:13.920Z,10.38
2023-03-06T17:47:42.621Z,10.37
2023-03-06T17:50:12.025Z,10.37
2023-03-06T17:52:40.060Z,10.30
2023-03-06T17:55:09.619Z,10.27
2023-03-06T17:57:37.706Z,10.22
2023-03-06T18:00:07.154Z,10.15
2023-03-06T18:02:37.402Z,10.15
2023-03-06T18:05:05.967Z,10.08
2023-03-06T18:07:34.051Z,10.09
2023-03-06T18:10:02.585Z,10.03
2023-03-06T18:12:30.631Z,9.84
2023-03-06T18:14:58.685Z,9.85
2023-03-06T18:17:27.398Z,9.78
2023-03-06T18:19:57.088Z,9.76
2023-03-06T18:22:25.223Z,9.68
2023-03-06T18:24:53.529Z,9.62
2023-03-06T18:27:21.953Z,9.58
2023-03-06T18:29:52.215Z,9.53
2023-03-06T18:32:20.530Z,9.50
2023-03-06T18:34:50.678Z,9.47
2023-03-06T18:37:20.453Z,9.45
2023-03-06T18:39:48.646Z,9.41
2023-03-06T18:42:16.936Z,9.36
2023-03-06T18:44:48.023Z,9.34
2023-03-06T18:47:16.456Z,9.32
2023-03-06T18:49:46.219Z,9.30
2023-03-06T18:52:14.579Z,9.26
2023-03-06T18:54:44.087Z,9.26
2023-03-06T18:57:12.370Z,9.27
2023-03-06T18:59:40.941Z,9.25
2023-03-06T19:02:09.574Z,9.25
2023-03-06T19:04:38.388Z,9.25
2023-03-06T19:07:06.916Z,9.28
2023-03-06T19:09:35.031Z,9.26
2023-03-06T19:12:04.892Z,9.24
2023-03-06T19:14:33.106Z,9.23
2023-03-06T19:17:01.913Z,9.21
2023-03-06T19:19:29.903Z,9.23
2023-03-06T19:21:59.445Z,9.25
2023-03-06T19:24:27.791Z,9.23
2023-03-06T19:26:55.545Z,9.19
2023-03-06T19:29:25.530Z,9.20
2023-03-06T19:31:53.293Z,9.22
2023-03-06T19:34:21.529Z,9.17
2023-03-06T19:36:52.150Z,9.12
2023-03-06T19:39:20.215Z,9.12
2023-03-06T19:41:48.752Z,9.12
2023-03-06T19:44:18.101Z,9.12
2023-03-06T19:46:47.574Z,9.15
2023-03-06T19:49:18.708Z,9.15
2023-03-06T19:51:47.053Z,9.14
2023-03-06T19:54:15.535Z,9.06
2023-03-06T19:56:44.230Z,9.12
2023-03-06T19:59:12.325Z,9.11
2023-03-06T20:01:40.662Z,9.03
2023-03-06T20:04:10.850Z,9.12
2023-03-06T20:06:39.194Z,9.06
2023-03-06T20:09:09.493Z,9.05
2023-03-06T20:11:37.784Z,9.02
2023-03-06T20:14:07.743Z,9.03
2023-03-06T20:16:37.893Z,8.98
2023-03-06T20:19:07.142Z,8.93
2023-03-06T20:21:38.512Z,8.95
2023-03-06T20:24:07.626Z,8.96
2023-03-06T20:26:36.999Z,9.00
2023-03-06T20:29:06.141Z,9.04
2023-03-06T20:31:34.666Z,9.03
2023-03-06T20:34:02.937Z,9.01
2023-03-06T20:36:32.928Z,8.98
2023-03-06T20:39:03.936Z,8.96
2023-03-06T20:41:33.145Z,8.99
2023-03-06T20:44:01.707Z,9.00
2023-03-06T20:46:30.375Z,8.89
2023-03-06T20:49:00.212Z,8.96
2023-03-06T20:51:30.265Z,9.01
2023-03-06T20:53:59.199Z,9.02
2023-03-06T20:56:31.191Z,9.02
2023-03-06T20:58:59.674Z,8.93
2023-03-06T21:01:29.072Z,8.91
2023-03-06T21:03:58.584Z,8.93
2023-03-06T21:06:29.015Z,8.94
2023-03-06T21:08:58.084Z,8.90
2023-03-06T21:11:26.907Z,8.93
2023-03-06T21:13:56.556Z,8.96
2023-03-06T21:16:25.267Z,8.96
2023-03-06T21:18:55.807Z,9.01
2023-03-06T21:21:25.886Z,8.98
2023-03-06T21:23:53.813Z,8.98
2023-03-06T21:26:23.448Z,9.00
2023-03-06T21:28:51.183Z,9.08
2023-03-06T21:31:22.384Z,9.06
2023-03-06T21:33:51.483Z,9.05
2023-03-06T21:36:21.479Z,9.04
2023-03-06T21:38:51.497Z,9.07
2023-03-06T21:41:21.800Z,9.06
2023-03-06T21:43:49.911Z,9.02
2023-03-06T21:46:18.141Z,9.00
2023-03-06T21:48:47.339Z,9.04
2023-03-06T21:51:18.645Z,8.97
2023-03-06T21:53:48.376Z,9.04
2023-03-06T21:56:18.844Z,9.00
2023-03-06T21:58:46.793Z,8.96
2023-03-06T22:01:18.000Z,8.97
2023-03-06T22:03:47.717Z,8.93
2023-03-06T22:06:18.156Z,9.04
2023-03-06T22:08:46.804Z,9.03
2023-03-06T22:11:17.011Z,9.00
2023-03-06T22:13:45.341Z,9.00
2023-03-06T22:16:13.880Z,8.95
2023-03-06T22:18:46.209Z,8.97
2023-03-06T22:21:17.676Z,9.01
2023-03-06T22:23:50.099Z,9.01
2023-03-06T22:26:18.873Z,9.02
2023-03-06T22:28:46.855Z,9.00
2023-03-06T22:31:18.234Z,9.04
2023-03-06T22:33:46.428Z,9.07
2023-03-06T22:36:17.164Z,9.09
2023-03-06T22:38:47.666Z,9.11
2023-03-06T22:41:17.996Z,9.12
2023-03-06T22:43:46.039Z,9.15
2023-03-06T22:46:16.433Z,9.17
2023-03-06T22:48:44.890Z,9.12
2023-03-06T22:51:16.478Z,9.02
2023-03-06T22:53:45.160Z,9.12
2023-03-06T22:56:16.576Z,9.13
2023-03-06T22:58:44.990Z,8.96
2023-03-06T23:01:15.987Z,9.02
2023-03-06T23:03:46.660Z,9.03
2023-03-06T23:06:17.869Z,9.07
2023-03-06T23:08:50.915Z,9.02
2023-03-06T23:11:20.154Z,8.99
2023-03-06T23:13:48.280Z,8.97
2023-03-06T23:16:16.990Z,8.97
2023-03-06T23:18:45.131Z,8.92
2023-03-06T23:21:17.514Z,8.94
2023-03-06T23:23:49.488Z,8.94
2023-03-06T23:26:19.720Z,8.91
2023-03-06T23:28:48.175Z,8.89
2023-03-06T23:31:18.401Z,8.84
2023-03-06T23:33:47.197Z,8.81
2023-03-06T23:36:18.466Z,8.73
2023-03-06T23:38:47.603Z,8.71
2023-03-06T23:41:18.134Z,8.69
2023-03-06T23:43:47.317Z,8.74
2023-03-06T23:46:16.207Z,8.78
2023-03-06T23:48:45.405Z,8.74
2023-03-06T23:51:18.139Z,8.76
2023-03-06T23:53:47.386Z,8.77
2023-03-06T23:56:15.707Z,8.80
2023-03-06T23:58:44.445Z,8.80
